sensor_id;sensor_type;location;lat;lon;timestamp;pressure;altitude;pressure_sealevel;temperature;humidity
53758;BME280;39674;59.860;30.672;2023-02-28T00:06:33;100851.59;;;-0.37;100.00
53758;BME280;39674;59.860;30.672;2023-02-28T00:16:57;100856.69;;;-0.15;100.00
53758;BME280;39674;59.860;30.672;2023-02-28T00:21:02;100841.09;;;-0.15;100.00
53758;BME280;39674;59.860;30.672;2023-02-28T00:26:24;100832.38;;;-0.02;100.00
53758;BME280;39674;59.860;30.672;2023-02-28T00:33:23;100832.25;;;0.13;100.00
53758;BME280;39674;59.860;30.672;2023-02-28T00:36:25;100827.94;;;0.14;100.00
53758;BME280;39674;59.860;30.672;2023-02-28T00:39:10;100827.03;;;0.20;100.00
53758;BME280;39674;59.860;30.672;2023-02-28T00:42:05;100820.03;;;0.31;100.00
53758;BME280;39674;59.860;30.672;2023-02-28T00:44:36;100807.94;;;0.30;100.00
53758;BME280;39674;59.860;30.672;2023-02-28T00:47:19;100807.88;;;0.36;100.00
53758;BME280;39674;59.860;30.672;2023-02-28T00:49:54;100807.78;;;0.47;100.00
53758;BME280;39674;59.860;30.672;2023-02-28T00:52:38;100798.22;;;0.49;100.00
53758;BME280;39674;59.860;30.672;2023-02-28T00:55:25;100797.38;;;0.48;100.00
53758;BME280;39674;59.860;30.672;2023-02-28T00:57:56;100791.28;;;0.51;100.00
53758;BME280;39674;59.860;30.672;2023-02-28T01:00:47;100788.72;;;0.50;100.00
53758;BME280;39674;59.860;30.672;2023-02-28T01:03:40;100773.97;;;0.52;100.00
53758;BME280;39674;59.860;30.672;2023-02-28T01:06:18;100780.00;;;0.54;100.00
53758;BME280;39674;59.860;30.672;2023-02-28T01:09:09;100769.59;;;0.57;100.00
53758;BME280;39674;59.860;30.672;2023-02-28T01:11:56;100765.22;;;0.59;100.00
53758;BME280;39674;59.860;30.672;2023-02-28T01:14:29;100770.38;;;0.65;100.00
53758;BME280;39674;59.860;30.672;2023-02-28T01:17:00;100753.88;;;0.69;100.00
53758;BME280;39674;59.860;30.672;2023-02-28T01:19:52;100753.81;;;0.72;100.00
53758;BME280;39674;59.860;30.672;2023-02-28T01:22:27;100739.09;;;0.74;100.00
53758;BME280;39674;59.860;30.672;2023-02-28T01:25:00;100752.06;;;0.77;100.00
53758;BME280;39674;59.860;30.672;2023-02-28T01:27:33;100753.75;;;0.78;100.00
53758;BME280;39674;59.860;30.672;2023-02-28T01:30:02;100748.56;;;0.78;100.00
53758;BME280;39674;59.860;30.672;2023-02-28T01:32:48;100738.22;;;0.75;100.00
53758;BME280;39674;59.860;30.672;2023-02-28T01:35:22;100745.09;;;0.79;100.00
53758;BME280;39674;59.860;30.672;2023-02-28T01:37:57;100736.41;;;0.80;100.00
53758;BME280;39674;59.860;30.672;2023-02-28T01:43:25;100720.88;;;0.77;100.00
53758;BME280;39674;59.860;30.672;2023-02-28T01:45:56;100721.66;;;0.83;100.00
53758;BME280;39674;59.860;30.672;2023-02-28T01:48:36;100715.59;;;0.82;100.00
53758;BME280;39674;59.860;30.672;2023-02-28T01:51:15;100720.78;;;0.84;100.00
53758;BME280;39674;59.860;30.672;2023-02-28T01:53:56;100708.66;;;0.83;100.00
53758;BME280;39674;59.860;30.672;2023-02-28T01:57:06;100713.88;;;0.83;100.00
53758;BME280;39674;59.860;30.672;2023-02-28T01:59:23;100712.16;;;0.78;100.00
53758;BME280;39674;59.860;30.672;2023-02-28T02:01:59;100705.22;;;0.80;100.00
53758;BME280;39674;59.860;30.672;2023-02-28T02:04:34;100712.22;;;0.75;100.00
53758;BME280;39674;59.860;30.672;2023-02-28T02:07:07;100700.00;;;0.84;100.00
53758;BME280;39674;59.860;30.672;2023-02-28T02:09:39;100705.22;;;0.80;100.00
53758;BME280;39674;59.860;30.672;2023-02-28T02:12:33;100722.53;;;0.82;100.00
53758;BME280;39674;59.860;30.672;2023-02-28T02:15:26;100706.09;;;0.79;100.00
53758;BME280;39674;59.860;30.672;2023-02-28T02:18:09;100698.25;;;0.83;100.00
53758;BME280;39674;59.860;30.672;2023-02-28T02:20:57;100694.81;;;0.80;100.00
53758;BME280;39674;59.860;30.672;2023-02-28T02:23:37;100692.19;;;0.84;100.00
53758;BME280;39674;59.860;30.672;2023-02-28T02:29:44;100688.78;;;0.77;100.00
53758;BME280;39674;59.860;30.672;2023-02-28T02:35:22;100679.25;;;0.77;100.00
53758;BME280;39674;59.860;30.672;2023-02-28T02:37:54;100681.91;;;0.73;100.00
53758;BME280;39674;59.860;30.672;2023-02-28T02:40:34;100689.63;;;0.80;100.00
53758;BME280;39674;59.860;30.672;2023-02-28T02:43:13;100693.13;;;0.78;100.00
53758;BME280;39674;59.860;30.672;2023-02-28T02:45:44;100686.25;;;0.74;100.00
53758;BME280;39674;59.860;30.672;2023-02-28T02:48:18;100678.34;;;0.78;100.00
53758;BME280;39674;59.860;30.672;2023-02-28T02:50:52;100680.09;;;0.79;100.00
53758;BME280;39674;59.860;30.672;2023-02-28T02:53:26;100674.97;;;0.75;100.00
53758;BME280;39674;59.860;30.672;2023-02-28T02:56:02;100677.53;;;0.76;100.00
53758;BME280;39674;59.860;30.672;2023-02-28T02:58:37;100678.44;;;0.74;100.00
53758;BME280;39674;59.860;30.672;2023-02-28T03:01:14;100663.69;;;0.74;100.00
53758;BME280;39674;59.860;30.672;2023-02-28T03:03:46;100662.00;;;0.70;100.00
53758;BME280;39674;59.860;30.672;2023-02-28T03:07:02;100665.44;;;0.72;100.00
53758;BME280;39674;59.860;30.672;2023-02-28T03:09:35;100648.97;;;0.75;100.00
53758;BME280;39674;59.860;30.672;2023-02-28T03:12:12;100647.22;;;0.72;100.00
53758;BME280;39674;59.860;30.672;2023-02-28T03:14:51;100640.31;;;0.73;100.00
53758;BME280;39674;59.860;30.672;2023-02-28T03:17:36;100629.94;;;0.71;100.00
53758;BME280;39674;59.860;30.672;2023-02-28T03:20:21;100630.81;;;0.69;100.00
53758;BME280;39674;59.860;30.672;2023-02-28T03:23:03;100633.47;;;0.66;100.00
53758;BME280;39674;59.860;30.672;2023-02-28T03:25:44;100634.28;;;0.69;100.00
53758;BME280;39674;59.860;30.672;2023-02-28T03:28:15;100651.69;;;0.64;100.00
53758;BME280;39674;59.860;30.672;2023-02-28T03:30:52;100642.16;;;0.63;100.00
53758;BME280;39674;59.860;30.672;2023-02-28T03:33:31;100629.13;;;0.66;100.00
53758;BME280;39674;59.860;30.672;2023-02-28T03:36:06;100623.97;;;0.60;100.00
53758;BME280;39674;59.860;30.672;2023-02-28T03:38:46;100626.53;;;0.64;100.00
53758;BME280;39674;59.860;30.672;2023-02-28T03:41:20;100624.81;;;0.65;100.00
53758;BME280;39674;59.860;30.672;2023-02-28T03:44:14;100627.38;;;0.68;100.00
53758;BME280;39674;59.860;30.672;2023-02-28T03:46:46;100628.25;;;0.66;100.00
53758;BME280;39674;59.860;30.672;2023-02-28T03:49:20;100630.00;;;0.63;100.00
53758;BME280;39674;59.860;30.672;2023-02-28T03:52:04;100617.91;;;0.64;100.00
53758;BME280;39674;59.860;30.672;2023-02-28T03:54:40;100633.53;;;0.59;100.00
53758;BME280;39674;59.860;30.672;2023-02-28T03:57:15;100625.72;;;0.61;100.00
53758;BME280;39674;59.860;30.672;2023-02-28T03:59:52;100623.13;;;0.61;100.00
53758;BME280;39674;59.860;30.672;2023-02-28T04:02:27;100624.84;;;0.59;100.00
53758;BME280;39674;59.860;30.672;2023-02-28T04:04:56;100632.72;;;0.56;100.00
53758;BME280;39674;59.860;30.672;2023-02-28T04:07:24;100620.53;;;0.59;100.00
53758;BME280;39674;59.860;30.672;2023-02-28T04:09:54;100623.13;;;0.59;100.00
53758;BME280;39674;59.860;30.672;2023-02-28T04:12:42;100630.97;;;0.55;100.00
53758;BME280;39674;59.860;30.672;2023-02-28T04:18:31;100635.34;;;0.51;100.00
53758;BME280;39674;59.860;30.672;2023-02-28T04:21:09;100636.19;;;0.55;100.00
53758;BME280;39674;59.860;30.672;2023-02-28T04:23:59;100643.13;;;0.54;100.00
53758;BME280;39674;59.860;30.672;2023-02-28T04:26:37;100640.53;;;0.53;100.00
53758;BME280;39674;59.860;30.672;2023-02-28T04:29:26;100639.66;;;0.54;100.00
53758;BME280;39674;59.860;30.672;2023-02-28T04:32:41;100631.88;;;0.55;100.00
53758;BME280;39674;59.860;30.672;2023-02-28T04:35:38;100629.31;;;0.47;100.00
53758;BME280;39674;59.860;30.672;2023-02-28T04:38:09;100620.72;;;0.45;100.00
53758;BME280;39674;59.860;30.672;2023-02-28T04:40:41;100635.41;;;0.45;100.00
53758;BME280;39674;59.860;30.672;2023-02-28T04:43:17;100618.09;;;0.47;100.00
53758;BME280;39674;59.860;30.672;2023-02-28T04:46:03;100460.56;;;-0.35;100.00
53758;BME280;39674;59.860;30.672;2023-02-28T04:49:23;100606.78;;;0.50;100.00
53758;BME280;39674;59.860;30.672;2023-02-28T04:51:41;100601.63;;;0.46;100.00
53758;BME280;39674;59.860;30.672;2023-02-28T04:54:11;100592.16;;;0.41;100.00
53758;BME280;39674;59.860;30.672;2023-02-28T04:56:47;100604.22;;;0.46;100.00
53758;BME280;39674;59.860;30.672;2023-02-28T05:02:30;100613.81;;;0.41;100.00
53758;BME280;39674;59.860;30.672;2023-02-28T05:05:00;100606.03;;;0.40;100.00
53758;BME280;39674;59.860;30.672;2023-02-28T05:07:32;100612.97;;;0.38;100.00
53758;BME280;39674;59.860;30.672;2023-02-28T05:10:18;100611.22;;;0.41;100.00
53758;BME280;39674;59.860;30.672;2023-02-28T05:12:49;100621.59;;;0.41;100.00
53758;BME280;39674;59.860;30.672;2023-02-28T05:15:20;100620.72;;;0.42;100.00
53758;BME280;39674;59.860;30.672;2023-02-28T05:17:55;100621.59;;;0.44;100.00
53758;BME280;39674;59.860;30.672;2023-02-28T05:20:25;100624.19;;;0.44;100.00
53758;BME280;39674;59.860;30.672;2023-02-28T05:23:08;100625.84;;;0.50;100.00
53758;BME280;39674;59.860;30.672;2023-02-28T05:25:47;100624.97;;;0.50;100.00
53758;BME280;39674;59.860;30.672;2023-02-28T05:29:27;100615.47;;;0.48;100.00
53758;BME280;39674;59.860;30.672;2023-02-28T05:31:14;100613.78;;;0.44;100.00
53758;BME280;39674;59.860;30.672;2023-02-28T05:33:51;100608.59;;;0.44;100.00
53758;BME280;39674;59.860;30.672;2023-02-28T05:36:28;100603.34;;;0.47;100.00
53758;BME280;39674;59.860;30.672;2023-02-28T05:39:01;100611.13;;;0.47;100.00
53758;BME280;39674;59.860;30.672;2023-02-28T05:41:42;100603.34;;;0.47;100.00
53758;BME280;39674;59.860;30.672;2023-02-28T05:44:25;100610.19;;;0.55;100.00
53758;BME280;39674;59.860;30.672;2023-02-28T05:46:56;100611.94;;;0.53;100.00
53758;BME280;39674;59.860;30.672;2023-02-28T05:49:35;100626.69;;;0.49;100.00
53758;BME280;39674;59.860;30.672;2023-02-28T05:52:07;100635.41;;;0.48;100.00
53758;BME280;39674;59.860;30.672;2023-02-28T05:55:27;100640.59;;;0.48;100.00
53758;BME280;39674;59.860;30.672;2023-02-28T05:57:45;100637.94;;;0.53;100.00
53758;BME280;39674;59.860;30.672;2023-02-28T06:00:17;100671.72;;;0.53;100.00
53758;BME280;39674;59.860;30.672;2023-02-28T06:02:56;100715.97;;;0.46;100.00
53758;BME280;39674;59.860;30.672;2023-02-28T06:05:30;100733.31;;;0.44;100.00
53758;BME280;39674;59.860;30.672;2023-02-28T06:08:46;100714.34;;;0.36;100.00
53758;BME280;39674;59.860;30.672;2023-02-28T06:11:24;100704.03;;;0.28;100.00
53758;BME280;39674;59.860;30.672;2023-02-28T06:14:07;100704.91;;;0.24;100.00
53758;BME280;39674;59.860;30.672;2023-02-28T06:16:50;100705.00;;;0.13;100.00
53758;BME280;39674;59.860;30.672;2023-02-28T06:46:01;100738.81;;;0.10;100.00
53758;BME280;39674;59.860;30.672;2023-02-28T07:08:44;100797.59;;;0.21;100.00
53758;BME280;39674;59.860;30.672;2023-02-28T07:11:53;100802.78;;;0.22;100.00
53758;BME280;39674;59.860;30.672;2023-02-28T07:14:36;100816.63;;;0.26;100.00
53758;BME280;39674;59.860;30.672;2023-02-28T07:17:34;100814.88;;;0.26;100.00
53758;BME280;39674;59.860;30.672;2023-02-28T07:20:08;100821.81;;;0.26;100.00
53758;BME280;39674;59.860;30.672;2023-02-28T07:22:39;100806.19;;;0.29;100.00
53758;BME280;39674;59.860;30.672;2023-02-28T07:25:23;100795.81;;;0.27;100.00
53758;BME280;39674;59.860;30.672;2023-02-28T07:28:06;100798.44;;;0.24;100.00
53758;BME280;39674;59.860;30.672;2023-02-28T07:30:45;100795.84;;;0.23;100.00
53758;BME280;39674;59.860;30.672;2023-02-28T07:33:28;100792.38;;;0.24;100.00
53758;BME280;39674;59.860;30.672;2023-02-28T07:35:59;100792.34;;;0.27;100.00
53758;BME280;39674;59.860;30.672;2023-02-28T07:38:43;100785.47;;;0.23;100.00
53758;BME280;39674;59.860;30.672;2023-02-28T07:41:25;100801.06;;;0.20;100.00
53758;BME280;39674;59.860;30.672;2023-02-28T07:43:59;100797.59;;;0.21;100.00
53758;BME280;39674;59.860;30.672;2023-02-28T07:46:33;100794.16;;;0.19;100.00
53758;BME280;39674;59.860;30.672;2023-02-28T07:49:05;100789.81;;;0.19;100.00
53758;BME280;39674;59.860;30.672;2023-02-28T07:51:41;100783.72;;;0.25;98.55
53758;BME280;39674;59.860;30.672;2023-02-28T07:54:10;100786.31;;;0.22;97.08
53758;BME280;39674;59.860;30.672;2023-02-28T07:56:56;100783.72;;;0.22;97.71
53758;BME280;39674;59.860;30.672;2023-02-28T07:59:26;100778.53;;;0.25;99.63
53758;BME280;39674;59.860;30.672;2023-02-28T08:02:00;100790.63;;;0.24;98.87
53758;BME280;39674;59.860;30.672;2023-02-28T08:04:35;100788.88;;;0.28;96.59
53758;BME280;39674;59.860;30.672;2023-02-28T08:07:07;100798.38;;;0.30;94.33
53758;BME280;39674;59.860;30.672;2023-02-28T08:09:40;100799.28;;;0.28;94.88
53758;BME280;39674;59.860;30.672;2023-02-28T08:12:11;100790.59;;;0.29;95.96
53758;BME280;39674;59.860;30.672;2023-02-28T08:14:45;100790.59;;;0.32;93.17
53758;BME280;39674;59.860;30.672;2023-02-28T08:17:17;100786.22;;;0.34;94.10
53758;BME280;39674;59.860;30.672;2023-02-28T08:19:55;100785.41;;;0.29;93.31
53758;BME280;39674;59.860;30.672;2023-02-28T08:22:34;100789.72;;;0.35;91.22
53758;BME280;39674;59.860;30.672;2023-02-28T08:25:18;100792.34;;;0.30;89.58
53758;BME280;39674;59.860;30.672;2023-02-28T08:27:53;100794.06;;;0.28;89.37
53758;BME280;39674;59.860;30.672;2023-02-28T08:30:21;100807.94;;;0.30;91.11
53758;BME280;39674;59.860;30.672;2023-02-28T08:32:54;100807.94;;;0.27;90.07
53758;BME280;39674;59.860;30.672;2023-02-28T08:35:23;100820.03;;;0.31;90.93
53758;BME280;39674;59.860;30.672;2023-02-28T08:37:54;100821.72;;;0.35;89.03
53758;BME280;39674;59.860;30.672;2023-02-28T08:40:27;100824.25;;;0.46;83.32
53758;BME280;39674;59.860;30.672;2023-02-28T08:43:04;100818.22;;;0.42;86.09
53758;BME280;39674;59.860;30.672;2023-02-28T08:45:38;100822.50;;;0.46;85.96
53758;BME280;39674;59.860;30.672;2023-02-28T08:48:07;100827.72;;;0.48;83.88
53758;BME280;39674;59.860;30.672;2023-02-28T08:50:42;100827.72;;;0.48;83.37
53758;BME280;39674;59.860;30.672;2023-02-28T08:53:18;100827.69;;;0.50;82.51
53758;BME280;39674;59.860;30.672;2023-02-28T08:55:56;100819.84;;;0.53;84.06
53758;BME280;39674;59.860;30.672;2023-02-28T08:58:38;100835.44;;;0.56;84.11
53758;BME280;39674;59.860;30.672;2023-02-28T09:01:13;100838.00;;;0.59;82.21
53758;BME280;39674;59.860;30.672;2023-02-28T09:03:43;100854.50;;;0.55;80.28
53758;BME280;39674;59.860;30.672;2023-02-28T09:06:18;100849.34;;;0.48;81.40
53758;BME280;39674;59.860;30.672;2023-02-28T09:08:51;100863.25;;;0.44;82.26
53758;BME280;39674;59.860;30.672;2023-02-28T09:11:29;100867.63;;;0.41;77.99
53758;BME280;39674;59.860;30.672;2023-02-28T09:14:02;100871.97;;;0.34;79.81
53758;BME280;39674;59.860;30.672;2023-02-28T09:18:13;100873.78;;;0.26;79.90
53758;BME280;39674;59.860;30.672;2023-02-28T09:19:21;100884.19;;;0.26;79.38
53758;BME280;39674;59.860;30.672;2023-02-28T09:21:57;100865.94;;;0.34;78.97
53758;BME280;39674;59.860;30.672;2023-02-28T09:26:59;100858.81;;;0.57;76.99
53758;BME280;39674;59.860;30.672;2023-02-28T09:29:31;100869.97;;;0.72;77.03
53758;BME280;39674;59.860;30.672;2023-02-28T09:31:59;100867.16;;;0.96;77.06
53758;BME280;39674;59.860;30.672;2023-02-28T09:34:28;100872.94;;;1.28;77.15
53758;BME280;39674;59.860;30.672;2023-02-28T09:36:57;100868.25;;;1.59;76.41
53758;BME280;39674;59.860;30.672;2023-02-28T09:39:31;100881.88;;;1.82;75.27
53758;BME280;39674;59.860;30.672;2023-02-28T09:42:03;100880.78;;;1.98;75.38
53758;BME280;39674;59.860;30.672;2023-02-28T09:44:36;100883.13;;;2.18;71.58
53758;BME280;39674;59.860;30.672;2023-02-28T09:47:09;100884.59;;;2.36;74.34
53758;BME280;39674;59.860;30.672;2023-02-28T09:49:46;100878.22;;;2.56;69.38
53758;BME280;39674;59.860;30.672;2023-02-28T09:52:24;100871.13;;;2.64;69.10
53758;BME280;39674;59.860;30.672;2023-02-28T09:55:00;100874.59;;;2.65;69.65
53758;BME280;39674;59.860;30.672;2023-02-28T09:57:45;100885.06;;;2.63;69.26
53758;BME280;39674;59.860;30.672;2023-02-28T10:00:27;100873.84;;;2.58;65.96
53758;BME280;39674;59.860;30.672;2023-02-28T10:03:12;100881.78;;;2.49;68.06
53758;BME280;39674;59.860;30.672;2023-02-28T10:05:48;100886.44;;;2.30;67.62
53758;BME280;39674;59.860;30.672;2023-02-28T10:08:27;100888.44;;;2.09;70.99
53758;BME280;39674;59.860;30.672;2023-02-28T10:11:19;100891.34;;;1.86;69.11
53758;BME280;39674;59.860;30.672;2023-02-28T10:13:53;100890.66;;;1.73;69.75
53758;BME280;39674;59.860;30.672;2023-02-28T10:16:28;100897.72;;;1.62;68.72
53758;BME280;39674;59.860;30.672;2023-02-28T10:19:14;100897.81;;;1.54;69.73
53758;BME280;39674;59.860;30.672;2023-02-28T10:22:18;100895.28;;;1.48;70.42
53758;BME280;39674;59.860;30.672;2023-02-28T10:24:38;100893.53;;;1.47;69.58
53758;BME280;39674;59.860;30.672;2023-02-28T10:27:12;100901.38;;;1.45;70.66
53758;BME280;39674;59.860;30.672;2023-02-28T10:29:47;100897.00;;;1.49;69.50
53758;BME280;39674;59.860;30.672;2023-02-28T10:32:22;100896.63;;;1.80;71.10
53758;BME280;39674;59.860;30.672;2023-02-28T10:35:06;100904.94;;;2.09;68.66
53758;BME280;39674;59.860;30.672;2023-02-28T10:37:44;100897.94;;;2.15;68.93
53758;BME280;39674;59.860;30.672;2023-02-28T10:43:11;100896.50;;;1.90;67.95
53758;BME280;39674;59.860;30.672;2023-02-28T10:46:14;100902.78;;;1.75;67.31
53758;BME280;39674;59.860;30.672;2023-02-28T10:49:04;100908.16;;;1.60;67.17
53758;BME280;39674;59.860;30.672;2023-02-28T10:51:36;100910.13;;;1.38;64.35
53758;BME280;39674;59.860;30.672;2023-02-28T10:54:28;100912.88;;;1.22;67.80
53758;BME280;39674;59.860;30.672;2023-02-28T10:57:08;100904.34;;;1.09;69.34
53758;BME280;39674;59.860;30.672;2023-02-28T10:59:42;100909.63;;;0.99;68.26
53758;BME280;39674;59.860;30.672;2023-02-28T11:02:33;100914.03;;;0.90;69.66
53758;BME280;39674;59.860;30.672;2023-02-28T11:05:29;100913.22;;;0.84;69.26
53758;BME280;39674;59.860;30.672;2023-02-28T11:08:01;100919.31;;;0.78;69.69
53758;BME280;39674;59.860;30.672;2023-02-28T11:10:38;100912.44;;;0.74;68.79
53758;BME280;39674;59.860;30.672;2023-02-28T11:13:13;100916.78;;;0.67;68.39
53758;BME280;39674;59.860;30.672;2023-02-28T11:15:49;100923.72;;;0.68;68.95
53758;BME280;39674;59.860;30.672;2023-02-28T11:18:20;100917.56;;;0.78;69.71
53758;BME280;39674;59.860;30.672;2023-02-28T11:20:54;100914.09;;;0.83;68.22
53758;BME280;39674;59.860;30.672;2023-02-28T11:23:24;100916.59;;;0.92;69.26
53758;BME280;39674;59.860;30.672;2023-02-28T11:25:54;100916.28;;;1.27;68.65
53758;BME280;39674;59.860;30.672;2023-02-28T11:28:26;100914.06;;;1.74;68.49
53758;BME280;39674;59.860;30.672;2023-02-28T11:31:02;100909.91;;;2.28;67.96
53758;BME280;39674;59.860;30.672;2023-02-28T11:33:31;100911.00;;;2.71;66.40
53758;BME280;39674;59.860;30.672;2023-02-28T11:36:12;100902.84;;;2.93;64.55
53758;BME280;39674;59.860;30.672;2023-02-28T11:38:41;100894.00;;;3.01;62.11
53758;BME280;39674;59.860;30.672;2023-02-28T11:44:23;100903.56;;;2.46;61.78
53758;BME280;39674;59.860;30.672;2023-02-28T11:47:01;100907.13;;;2.40;64.36
53758;BME280;39674;59.860;30.672;2023-02-28T11:49:34;100900.22;;;2.36;63.50
53758;BME280;39674;59.860;30.672;2023-02-28T11:52:13;100905.69;;;2.21;59.70
53758;BME280;39674;59.860;30.672;2023-02-28T11:54:50;100908.47;;;2.05;62.16
53758;BME280;39674;59.860;30.672;2023-02-28T11:57:33;100898.31;;;1.84;61.10
53758;BME280;39674;59.860;30.672;2023-02-28T12:00:13;100906.41;;;1.59;60.77
53758;BME280;39674;59.860;30.672;2023-02-28T12:02:58;100905.78;;;1.38;60.92
53758;BME280;39674;59.860;30.672;2023-02-28T12:05:37;100898.97;;;1.25;62.03
53758;BME280;39674;59.860;30.672;2023-02-28T12:08:15;100910.28;;;1.24;62.72
53758;BME280;39674;59.860;30.672;2023-02-28T12:10:52;100901.66;;;1.17;56.36
53758;BME280;39674;59.860;30.672;2023-02-28T12:13:37;100906.06;;;1.07;55.62
53758;BME280;39674;59.860;30.672;2023-02-28T12:16:24;100911.34;;;0.98;57.51
53758;BME280;39674;59.860;30.672;2023-02-28T12:19:16;100906.25;;;0.89;59.56
53758;BME280;39674;59.860;30.672;2023-02-28T12:24:47;100914.16;;;0.72;57.82
53758;BME280;39674;59.860;30.672;2023-02-28T12:27:21;100927.25;;;0.64;56.63
53758;BME280;39674;59.860;30.672;2023-02-28T12:30:03;100930.75;;;0.57;56.25
53758;BME280;39674;59.860;30.672;2023-02-28T12:32:35;100923.81;;;0.53;57.77
53758;BME280;39674;59.860;30.672;2023-02-28T12:35:11;100935.94;;;0.54;53.18
53758;BME280;39674;59.860;30.672;2023-02-28T12:37:41;100934.25;;;0.46;53.72
53758;BME280;39674;59.860;30.672;2023-02-28T12:40:15;100943.81;;;0.43;53.82
53758;BME280;39674;59.860;30.672;2023-02-28T12:42:47;100936.06;;;0.38;54.90
53758;BME280;39674;59.860;30.672;2023-02-28T12:45:20;100944.72;;;0.37;55.80
53758;BME280;39674;59.860;30.672;2023-02-28T12:47:57;100951.66;;;0.38;55.13
53758;BME280;39674;59.860;30.672;2023-02-28T12:50:28;100933.44;;;0.37;54.85
53758;BME280;39674;59.860;30.672;2023-02-28T12:53:05;100943.00;;;0.33;55.23
53758;BME280;39674;59.860;30.672;2023-02-28T12:55:48;100949.09;;;0.32;54.73
53758;BME280;39674;59.860;30.672;2023-02-28T12:58:19;100958.63;;;0.27;52.68
53758;BME280;39674;59.860;30.672;2023-02-28T13:00:59;100950.00;;;0.22;54.44
53758;BME280;39674;59.860;30.672;2023-02-28T13:03:46;100943.09;;;0.18;55.37
53758;BME280;39674;59.860;30.672;2023-02-28T13:09:16;100944.84;;;0.14;54.91
53758;BME280;39674;59.860;30.672;2023-02-28T13:11:46;100946.56;;;0.13;55.74
53758;BME280;39674;59.860;30.672;2023-02-28T13:14:28;100939.66;;;0.12;54.42
53758;BME280;39674;59.860;30.672;2023-02-28T13:17:03;100942.25;;;0.09;56.08
53758;BME280;39674;59.860;30.672;2023-02-28T13:19:43;100936.16;;;0.17;52.60
53758;BME280;39674;59.860;30.672;2023-02-28T13:22:18;100944.00;;;0.09;55.61
53758;BME280;39674;59.860;30.672;2023-02-28T13:24:50;100933.59;;;0.10;57.03
53758;BME280;39674;59.860;30.672;2023-02-28T13:27:31;100930.13;;;0.10;56.38
53758;BME280;39674;59.860;30.672;2023-02-28T13:30:00;100936.19;;;0.07;56.24
53758;BME280;39674;59.860;30.672;2023-02-28T13:32:33;100933.59;;;0.07;55.36
53758;BME280;39674;59.860;30.672;2023-02-28T13:38:13;100943.16;;;0.05;54.19
53758;BME280;39674;59.860;30.672;2023-02-28T13:40:43;100958.75;;;-0.01;55.58
53758;BME280;39674;59.860;30.672;2023-02-28T13:43:13;100951.84;;;-0.05;55.50
53758;BME280;39674;59.860;30.672;2023-02-28T13:48:28;100957.09;;;-0.21;54.61
53758;BME280;39674;59.860;30.672;2023-02-28T13:50:59;100960.59;;;-0.29;55.12
53758;BME280;39674;59.860;30.672;2023-02-28T13:56:23;100953.69;;;-0.44;55.94
53758;BME280;39674;59.860;30.672;2023-02-28T13:58:57;100962.31;;;-0.45;54.04
53758;BME280;39674;59.860;30.672;2023-02-28T14:01:39;100959.75;;;-0.50;54.71
53758;BME280;39674;59.860;30.672;2023-02-28T14:04:33;100959.75;;;-0.49;54.47
53758;BME280;39674;59.860;30.672;2023-02-28T14:07:06;100955.44;;;-0.56;56.11
53758;BME280;39674;59.860;30.672;2023-02-28T14:09:40;100955.47;;;-0.59;56.16
53758;BME280;39674;59.860;30.672;2023-02-28T14:15:17;100936.44;;;-0.67;56.63
53758;BME280;39674;59.860;30.672;2023-02-28T14:17:53;100937.31;;;-0.70;53.27
53758;BME280;39674;59.860;30.672;2023-02-28T14:20:22;100940.78;;;-0.77;55.14
53758;BME280;39674;59.860;30.672;2023-02-28T14:22:54;100934.72;;;-0.81;55.29
53758;BME280;39674;59.860;30.672;2023-02-28T14:25:39;100929.53;;;-0.84;54.99
53758;BME280;39674;59.860;30.672;2023-02-28T14:28:13;100939.03;;;-0.93;56.83
53758;BME280;39674;59.860;30.672;2023-02-28T14:30:59;100941.66;;;-0.98;56.20
53758;BME280;39674;59.860;30.672;2023-02-28T14:33:43;100958.06;;;-1.01;56.66
53758;BME280;39674;59.860;30.672;2023-02-28T14:36:21;100946.84;;;-1.07;56.17
53758;BME280;39674;59.860;30.672;2023-02-28T14:38:55;100945.97;;;-1.13;56.87
53758;BME280;39674;59.860;30.672;2023-02-28T14:41:30;100950.28;;;-1.11;55.30
53758;BME280;39674;59.860;30.672;2023-02-28T14:44:03;100953.75;;;-1.19;56.29
53758;BME280;39674;59.860;30.672;2023-02-28T14:46:46;100949.41;;;-1.21;56.40
53758;BME280;39674;59.860;30.672;2023-02-28T14:49:19;100946.81;;;-1.26;56.52
53758;BME280;39674;59.860;30.672;2023-02-28T14:51:51;100953.72;;;-1.30;56.24
53758;BME280;39674;59.860;30.672;2023-02-28T14:54:29;100946.78;;;-1.34;56.73
53758;BME280;39674;59.860;30.672;2023-02-28T14:57:05;100956.31;;;-1.36;57.67
53758;BME280;39674;59.860;30.672;2023-02-28T14:59:34;100953.69;;;-1.39;58.04
53758;BME280;39674;59.860;30.672;2023-02-28T15:02:20;100960.59;;;-1.42;57.32
53758;BME280;39674;59.860;30.672;2023-02-28T15:04:58;100964.06;;;-1.48;57.51
53758;BME280;39674;59.860;30.672;2023-02-28T15:07:30;100965.78;;;-1.52;57.98
53758;BME280;39674;59.860;30.672;2023-02-28T15:10:09;100965.75;;;-1.56;57.25
53758;BME280;39674;59.860;30.672;2023-02-28T15:12:44;100957.13;;;-1.57;58.01
53758;BME280;39674;59.860;30.672;2023-02-28T15:15:26;100957.09;;;-1.63;57.74
53758;BME280;39674;59.860;30.672;2023-02-28T15:17:57;100962.25;;;-1.69;58.13
53758;BME280;39674;59.860;30.672;2023-02-28T15:20:29;100951.91;;;-1.69;58.42
53758;BME280;39674;59.860;30.672;2023-02-28T15:22:58;100960.56;;;-1.69;58.02
53758;BME280;39674;59.860;30.672;2023-02-28T15:25:27;100965.72;;;-1.73;59.05
53758;BME280;39674;59.860;30.672;2023-02-28T15:27:56;100973.44;;;-1.78;59.16